Nyk Argus — HPZA — position and weather

sailwx.info

Track history (hours):
 
Tides and Currents Weather Stations Pressure Air Temp Water Temp Dewpoint Dewpoint Depression Visibility Wind Speed Wind Dir Waves Ship Positions

Nyk Argus

Last reported at 2018-Apr-22 02:51 UTC. Time now 2018-Apr-22 14:08 UTC.
Position N 31°05' E 122°29'.

Length 299.9 m; beam 40 m.

Type: Ship (hazmat cat D). MMSI: 356872000.

Date/timePositionNaut miles runAvg speedWind from/ knotsBaromVisibWave heightAir tempDewpointWater temp
2018-Apr-22 02:51N 31°05' E 122°29'0 0.1
2018-Apr-22 02:12N 31°05' E 122°29'0 0.0
2018-Apr-22 01:18N 31°05' E 122°29'0 0.0
2018-Apr-22 00:48N 31°05' E 122°29'0 0.0
2018-Apr-22 00:18N 31°05' E 122°29'0 0.0
2018-Apr-21 23:48N 31°05' E 122°29'0 0.1
2018-Apr-21 23:30N 31°05' E 122°29'5 4.8
2018-Apr-21 22:31N 31°06' E 122°24'413.9
2018-Apr-21 22:13N 31°06' E 122°19'315.2
2018-Apr-21 22:00N 31°08' E 122°16'714.4
2018-Apr-21 21:30N 31°12' E 122°09'713.6
2018-Apr-21 21:00N 31°14' E 122°02'713.5
2018-Apr-21 20:30N 31°16' E 121°54'714.5
2018-Apr-21 20:00N 31°18' E 121°46'11 8.9
2018-Apr-21 18:48N 31°23' E 121°34'0 0.0
2018-Apr-21 01:45N 31°23' E 121°34'0 0.0
2018-Apr-21 00:27N 31°23' E 121°34'0 0.0
2018-Apr-20 19:33N 31°23' E 121°34'0 0.0
2018-Apr-20 19:15N 31°23' E 121°34'1 1.1
2018-Apr-20 18:45N 31°23' E 121°34'1 2.1
2018-Apr-20 18:27N 31°24' E 121°34'3 5.8
2018-Apr-20 17:59N 31°22' E 121°37'7 9.9
2018-Apr-20 17:19N 31°19' E 121°43'412.3
2018-Apr-20 16:58N 31°18' E 121°48'611.5
2018-Apr-20 16:28N 31°16' E 121°54'611.3
2018-Apr-20 15:56N 31°15' E 122°01'711.0
2018-Apr-20 15:18N 31°12' E 122°09'411.7
2018-Apr-20 14:59N 31°10' E 122°12'610.7
2018-Apr-20 14:28N 31°07' E 122°18'511.4
2018-Apr-20 14:00N 31°06' E 122°24'4 8.5
2018-Apr-20 13:30N 31°07' E 122°29'3 4.9
2018-Apr-20 12:58N 31°09' E 122°30'2 4.0
2018-Apr-20 12:26N 31°11' E 122°31'2 5.6
2018-Apr-20 12:00N 31°14' E 122°32'4 7.2
2018-Apr-20 11:30N 31°17' E 122°34'4 6.9
2018-Apr-20 10:56N 31°20' E 122°37'0 0.1
2018-Apr-20 09:20N 31°20' E 122°37'0 0.0
2018-Apr-20 08:59N 31°20' E 122°37'0 0.0
2018-Apr-19 19:38N 31°20' E 122°37'0 0.1
2018-Apr-19 17:41N 31°20' E 122°37'0 0.1
2018-Apr-19 16:47N 31°20' E 122°37'0 0.0
2018-Apr-19 15:50N 31°20' E 122°37'0 0.0
2018-Apr-19 14:32N 31°20' E 122°37'0 0.1
2018-Apr-19 14:23N 31°20' E 122°37'0 0.1
2018-Apr-19 13:59N 31°20' E 122°37'0 0.1
2018-Apr-19 13:29N 31°20' E 122°37'0 0.3
2018-Apr-19 12:50N 31°20' E 122°37'0 0.3
2018-Apr-19 12:26N 31°20' E 122°37'0 0.2
2018-Apr-19 11:56N 31°20' E 122°37'0 0.2
2018-Apr-19 11:26N 31°20' E 122°37'0 0.1
2018-Apr-19 10:08N 31°20' E 122°37'0 0.4
2018-Apr-19 10:00N 31°20' E 122°37'2 3.7
2018-Apr-19 09:29N 31°20' E 122°40'4 7.6
2018-Apr-19 08:56N 31°21' E 122°44'713.6
2018-Apr-19 08:27N 31°23' E 122°52'613.1
2018-Apr-19 07:59N 31°27' E 122°58'612.7
2018-Apr-19 07:29N 31°30' E 123°04'3311.9
2018-Apr-19 04:45N 31°44' E 123°39'312.6
2018-Apr-19 04:28N 31°46' E 123°42'613.3
2018-Apr-19 04:01N 31°48' E 123°49'1214.0
2018-Apr-19 03:10N 31°51' E 124°03'513.8
2018-Apr-19 02:47N 31°53' E 124°08'514.1
2018-Apr-19 02:25N 31°55' E 124°14'614.3
2018-Apr-19 02:00N 31°58' E 124°20'714.1
2018-Apr-19 01:30N 32°01' E 124°27'713.9
2018-Apr-19 01:01N 32°04' E 124°35'1018.6
2018-Apr-19 00:28N 32°08' E 124°46'1312.5
2018-Apr-18 23:26N 32°14' E 124°59'612.7
2018-Apr-18 22:58N 32°17' E 125°05'814.4
2018-Apr-18 22:24N 32°20' E 125°14'2215.1
2018-Apr-18 20:56N 32°29' E 125°38'715.9
2018-Apr-18 20:30N 32°31' E 125°45'815.0
2018-Apr-18 20:00N 32°35' E 125°54'816.2
2018-Apr-18 19:30N 32°38' E 126°02'3316.8
2018-Apr-18 17:34N 32°50' E 126°38'616.9
2018-Apr-18 17:12N 32°53' E 126°45'2316.6
2018-Apr-18 15:47N 33°05' E 127°09'617.1
2018-Apr-18 15:26N 33°07' E 127°15'717.1
2018-Apr-18 15:00N 33°10' E 127°23'1217.1
2018-Apr-18 14:17N 33°16' E 127°37'517.2
2018-Apr-18 13:59N 33°18' E 127°42'917.1
2018-Apr-18 13:27N 33°21' E 127°52'817.2
2018-Apr-18 12:59N 33°25' E 128°01'1017.0
2018-Apr-18 12:23N 33°30' E 128°12'717.1
2018-Apr-18 12:00N 33°33' E 128°19'917.1
2018-Apr-18 11:30N 33°36' E 128°28'2217.3
2018-Apr-18 10:14N 33°45' E 128°52'817.3
2018-Apr-18 09:47N 33°48' E 129°01'517.1
2018-Apr-18 09:30N 33°51' E 129°06'1817.0
2018-Apr-18 08:27N 34°02' E 129°22'916.1
2018-Apr-18 07:52N 34°08' E 129°31'616.3
2018-Apr-18 07:30N 34°11' E 129°38'816.1
2018-Apr-18 06:59N 34°16' E 129°45'816.3
2018-Apr-18 06:30N 34°22' E 129°51'816.3
2018-Apr-18 06:00N 34°27' E 129°59'816.1
2018-Apr-18 05:29N 34°33' E 130°06'1016.0
2018-Apr-18 04:51N 34°40' E 130°16'616.1
2018-Apr-18 04:30N 34°44' E 130°21'816.0
2018-Apr-18 04:00N 34°49' E 130°28'1016.1
2018-Apr-18 03:23N 34°55' E 130°38'59816.5
2018-Apr-16 15:03N 41°21' E 140°18'415.6
2018-Apr-16 14:46N 41°24' E 140°22'414.7
2018-Apr-16 14:30N 41°26' E 140°27'714.1
2018-Apr-16 14:00N 41°30' E 140°34'816.1
2018-Apr-16 13:30N 41°35' E 140°43'714.7
2018-Apr-16 13:00N 41°37' E 140°53'714.6
2018-Apr-16 12:30N 41°39' E 141°02'816.8
2018-Apr-16 12:00N 41°40' E 141°13'816.8
2018-Apr-16 11:30N 41°41' E 141°24'815.8
2018-Apr-16 11:01N 41°41' E 141°35'816.5
2018-Apr-16 10:30N 41°42' E 141°46'  
Track history (hours):
 
Tides and Currents Weather Stations Pressure Air Temp Water Temp Dewpoint Dewpoint Depression Visibility Wind Speed Wind Dir Waves Ship Positions

Nyk Argus

Last reported at 2018-Apr-22 02:51 UTC. Time now 2018-Apr-22 14:08 UTC.
Position N 31°05' E 122°29'.

Length 299.9 m; beam 40 m.

Type: Ship (hazmat cat D). MMSI: 356872000.

Date/timePositionNaut miles runAvg speedWind from/ knotsBaromVisibWave heightAir tempDewpointWater temp
2018-Apr-22 02:51N 31°05' E 122°29'0 0.1
2018-Apr-22 02:12N 31°05' E 122°29'0 0.0
2018-Apr-22 01:18N 31°05' E 122°29'0 0.0
2018-Apr-22 00:48N 31°05' E 122°29'0 0.0
2018-Apr-22 00:18N 31°05' E 122°29'0 0.0
2018-Apr-21 23:48N 31°05' E 122°29'0 0.1
2018-Apr-21 23:30N 31°05' E 122°29'5 4.8
2018-Apr-21 22:31N 31°06' E 122°24'413.9
2018-Apr-21 22:13N 31°06' E 122°19'315.2
2018-Apr-21 22:00N 31°08' E 122°16'714.4
2018-Apr-21 21:30N 31°12' E 122°09'713.6
2018-Apr-21 21:00N 31°14' E 122°02'713.5
2018-Apr-21 20:30N 31°16' E 121°54'714.5
2018-Apr-21 20:00N 31°18' E 121°46'11 8.9
2018-Apr-21 18:48N 31°23' E 121°34'0 0.0
2018-Apr-21 01:45N 31°23' E 121°34'0 0.0
2018-Apr-21 00:27N 31°23' E 121°34'0 0.0
2018-Apr-20 19:33N 31°23' E 121°34'0 0.0
2018-Apr-20 19:15N 31°23' E 121°34'1 1.1
2018-Apr-20 18:45N 31°23' E 121°34'1 2.1
2018-Apr-20 18:27N 31°24' E 121°34'3 5.8
2018-Apr-20 17:59N 31°22' E 121°37'7 9.9
2018-Apr-20 17:19N 31°19' E 121°43'412.3
2018-Apr-20 16:58N 31°18' E 121°48'611.5
2018-Apr-20 16:28N 31°16' E 121°54'611.3
2018-Apr-20 15:56N 31°15' E 122°01'711.0
2018-Apr-20 15:18N 31°12' E 122°09'411.7
2018-Apr-20 14:59N 31°10' E 122°12'610.7
2018-Apr-20 14:28N 31°07' E 122°18'511.4
2018-Apr-20 14:00N 31°06' E 122°24'4 8.5
2018-Apr-20 13:30N 31°07' E 122°29'3 4.9
2018-Apr-20 12:58N 31°09' E 122°30'2 4.0
2018-Apr-20 12:26N 31°11' E 122°31'2 5.6
2018-Apr-20 12:00N 31°14' E 122°32'4 7.2
2018-Apr-20 11:30N 31°17' E 122°34'4 6.9
2018-Apr-20 10:56N 31°20' E 122°37'0 0.1
2018-Apr-20 09:20N 31°20' E 122°37'0 0.0
2018-Apr-20 08:59N 31°20' E 122°37'0 0.0
2018-Apr-19 19:38N 31°20' E 122°37'0 0.1
2018-Apr-19 17:41N 31°20' E 122°37'0 0.1
2018-Apr-19 16:47N 31°20' E 122°37'0 0.0
2018-Apr-19 15:50N 31°20' E 122°37'0 0.0
2018-Apr-19 14:32N 31°20' E 122°37'0 0.1
2018-Apr-19 14:23N 31°20' E 122°37'0 0.1
2018-Apr-19 13:59N 31°20' E 122°37'0 0.1
2018-Apr-19 13:29N 31°20' E 122°37'0 0.3
2018-Apr-19 12:50N 31°20' E 122°37'0 0.3
2018-Apr-19 12:26N 31°20' E 122°37'0 0.2
2018-Apr-19 11:56N 31°20' E 122°37'0 0.2
2018-Apr-19 11:26N 31°20' E 122°37'0 0.1
2018-Apr-19 10:08N 31°20' E 122°37'0 0.4
2018-Apr-19 10:00N 31°20' E 122°37'2 3.7
2018-Apr-19 09:29N 31°20' E 122°40'4 7.6
2018-Apr-19 08:56N 31°21' E 122°44'713.6
2018-Apr-19 08:27N 31°23' E 122°52'613.1
2018-Apr-19 07:59N 31°27' E 122°58'612.7
2018-Apr-19 07:29N 31°30' E 123°04'3311.9
2018-Apr-19 04:45N 31°44' E 123°39'312.6
2018-Apr-19 04:28N 31°46' E 123°42'613.3
2018-Apr-19 04:01N 31°48' E 123°49'1214.0
2018-Apr-19 03:10N 31°51' E 124°03'513.8
2018-Apr-19 02:47N 31°53' E 124°08'514.1
2018-Apr-19 02:25N 31°55' E 124°14'614.3
2018-Apr-19 02:00N 31°58' E 124°20'714.1
2018-Apr-19 01:30N 32°01' E 124°27'713.9
2018-Apr-19 01:01N 32°04' E 124°35'1018.6
2018-Apr-19 00:28N 32°08' E 124°46'1312.5
2018-Apr-18 23:26N 32°14' E 124°59'612.7
2018-Apr-18 22:58N 32°17' E 125°05'814.4
2018-Apr-18 22:24N 32°20' E 125°14'2215.1
2018-Apr-18 20:56N 32°29' E 125°38'715.9
2018-Apr-18 20:30N 32°31' E 125°45'815.0
2018-Apr-18 20:00N 32°35' E 125°54'816.2
2018-Apr-18 19:30N 32°38' E 126°02'3316.8
2018-Apr-18 17:34N 32°50' E 126°38'616.9
2018-Apr-18 17:12N 32°53' E 126°45'2316.6
2018-Apr-18 15:47N 33°05' E 127°09'617.1
2018-Apr-18 15:26N 33°07' E 127°15'717.1
2018-Apr-18 15:00N 33°10' E 127°23'1217.1
2018-Apr-18 14:17N 33°16' E 127°37'517.2
2018-Apr-18 13:59N 33°18' E 127°42'917.1
2018-Apr-18 13:27N 33°21' E 127°52'817.2
2018-Apr-18 12:59N 33°25' E 128°01'1017.0
2018-Apr-18 12:23N 33°30' E 128°12'717.1
2018-Apr-18 12:00N 33°33' E 128°19'917.1
2018-Apr-18 11:30N 33°36' E 128°28'2217.3
2018-Apr-18 10:14N 33°45' E 128°52'817.3
2018-Apr-18 09:47N 33°48' E 129°01'517.1
2018-Apr-18 09:30N 33°51' E 129°06'1817.0
2018-Apr-18 08:27N 34°02' E 129°22'916.1
2018-Apr-18 07:52N 34°08' E 129°31'616.3
2018-Apr-18 07:30N 34°11' E 129°38'816.1
2018-Apr-18 06:59N 34°16' E 129°45'816.3
2018-Apr-18 06:30N 34°22' E 129°51'816.3
2018-Apr-18 06:00N 34°27' E 129°59'816.1
2018-Apr-18 05:29N 34°33' E 130°06'1016.0
2018-Apr-18 04:51N 34°40' E 130°16'616.1
2018-Apr-18 04:30N 34°44' E 130°21'816.0
2018-Apr-18 04:00N 34°49' E 130°28'1016.1
2018-Apr-18 03:23N 34°55' E 130°38'59816.5
2018-Apr-16 15:03N 41°21' E 140°18'415.6
2018-Apr-16 14:46N 41°24' E 140°22'414.7
2018-Apr-16 14:30N 41°26' E 140°27'714.1
2018-Apr-16 14:00N 41°30' E 140°34'816.1
2018-Apr-16 13:30N 41°35' E 140°43'714.7
2018-Apr-16 13:00N 41°37' E 140°53'714.6
2018-Apr-16 12:30N 41°39' E 141°02'816.8
2018-Apr-16 12:00N 41°40' E 141°13'816.8
2018-Apr-16 11:30N 41°41' E 141°24'815.8
2018-Apr-16 11:01N 41°41' E 141°35'816.5
2018-Apr-16 10:30N 41°42' E 141°46'  

Dump ship's entire track history